sensor_id;sensor_type;location;lat;lon;timestamp;P1;durP1;ratioP1;P2;durP2;ratioP2
16063;SDS011;8136;53.172;8.256;2023-07-31T00:00:13;4.33;;;1.97;;
16063;SDS011;8136;53.172;8.256;2023-07-31T00:02:40;3.67;;;1.50;;
16063;SDS011;8136;53.172;8.256;2023-07-31T00:05:08;3.00;;;1.70;;
16063;SDS011;8136;53.172;8.256;2023-07-31T00:07:35;2.67;;;1.67;;
16063;SDS011;8136;53.172;8.256;2023-07-31T00:10:02;5.17;;;1.77;;
16063;SDS011;8136;53.172;8.256;2023-07-31T00:12:30;4.27;;;1.90;;
16063;SDS011;8136;53.172;8.256;2023-07-31T00:14:57;2.60;;;1.70;;
16063;SDS011;8136;53.172;8.256;2023-07-31T00:17:24;3.20;;;1.23;;
16063;SDS011;8136;53.172;8.256;2023-07-31T00:19:51;1.93;;;1.60;;
16063;SDS011;8136;53.172;8.256;2023-07-31T00:22:18;3.87;;;1.60;;
16063;SDS011;8136;53.172;8.256;2023-07-31T00:24:44;3.67;;;1.63;;
16063;SDS011;8136;53.172;8.256;2023-07-31T00:27:11;1.87;;;1.40;;
16063;SDS011;8136;53.172;8.256;2023-07-31T00:29:39;1.77;;;1.13;;
16063;SDS011;8136;53.172;8.256;2023-07-31T00:32:06;1.50;;;1.30;;
16063;SDS011;8136;53.172;8.256;2023-07-31T00:34:33;2.87;;;1.30;;
16063;SDS011;8136;53.172;8.256;2023-07-31T00:37:00;2.10;;;1.20;;
16063;SDS011;8136;53.172;8.256;2023-07-31T00:39:27;2.20;;;1.50;;
16063;SDS011;8136;53.172;8.256;2023-07-31T00:41:54;1.60;;;1.37;;
16063;SDS011;8136;53.172;8.256;2023-07-31T00:44:20;2.70;;;1.40;;
16063;SDS011;8136;53.172;8.256;2023-07-31T00:46:48;2.07;;;1.27;;
16063;SDS011;8136;53.172;8.256;2023-07-31T00:49:15;3.37;;;1.40;;
16063;SDS011;8136;53.172;8.256;2023-07-31T00:51:42;5.13;;;1.70;;
16063;SDS011;8136;53.172;8.256;2023-07-31T00:54:09;2.13;;;1.23;;
16063;SDS011;8136;53.172;8.256;2023-07-31T00:56:38;5.00;;;1.53;;
16063;SDS011;8136;53.172;8.256;2023-07-31T00:59:06;2.30;;;1.50;;
16063;SDS011;8136;53.172;8.256;2023-07-31T01:01:33;1.80;;;1.23;;
16063;SDS011;8136;53.172;8.256;2023-07-31T01:04:01;3.07;;;1.60;;
16063;SDS011;8136;53.172;8.256;2023-07-31T01:06:30;1.87;;;1.60;;
16063;SDS011;8136;53.172;8.256;2023-07-31T01:09:03;2.47;;;1.57;;
16063;SDS011;8136;53.172;8.256;2023-07-31T01:11:34;2.40;;;1.60;;
16063;SDS011;8136;53.172;8.256;2023-07-31T01:14:05;2.90;;;1.47;;
16063;SDS011;8136;53.172;8.256;2023-07-31T01:16:34;1.87;;;1.40;;
16063;SDS011;8136;53.172;8.256;2023-07-31T01:19:02;2.80;;;1.80;;
16063;SDS011;8136;53.172;8.256;2023-07-31T01:21:33;2.90;;;1.50;;
16063;SDS011;8136;53.172;8.256;2023-07-31T01:24:22;1.40;;;1.30;;
16063;SDS011;8136;53.172;8.256;2023-07-31T01:26:58;3.10;;;1.47;;
16063;SDS011;8136;53.172;8.256;2023-07-31T01:29:33;2.70;;;1.77;;
16063;SDS011;8136;53.172;8.256;2023-07-31T01:32:04;2.97;;;1.50;;
16063;SDS011;8136;53.172;8.256;2023-07-31T01:34:33;1.87;;;1.40;;
16063;SDS011;8136;53.172;8.256;2023-07-31T01:37:01;1.97;;;1.40;;
16063;SDS011;8136;53.172;8.256;2023-07-31T01:39:29;2.17;;;1.40;;
16063;SDS011;8136;53.172;8.256;2023-07-31T01:41:56;5.87;;;1.60;;
16063;SDS011;8136;53.172;8.256;2023-07-31T01:44:39;1.97;;;1.23;;
16063;SDS011;8136;53.172;8.256;2023-07-31T01:47:06;2.43;;;1.33;;
16063;SDS011;8136;53.172;8.256;2023-07-31T01:49:33;2.07;;;1.70;;
16063;SDS011;8136;53.172;8.256;2023-07-31T01:52:00;2.90;;;1.70;;
16063;SDS011;8136;53.172;8.256;2023-07-31T01:54:27;1.50;;;1.40;;
16063;SDS011;8136;53.172;8.256;2023-07-31T01:56:54;2.27;;;1.83;;
16063;SDS011;8136;53.172;8.256;2023-07-31T01:59:22;4.03;;;1.90;;
16063;SDS011;8136;53.172;8.256;2023-07-31T02:01:51;1.87;;;1.60;;
16063;SDS011;8136;53.172;8.256;2023-07-31T02:04:18;2.53;;;1.60;;
16063;SDS011;8136;53.172;8.256;2023-07-31T02:06:45;3.17;;;1.70;;
16063;SDS011;8136;53.172;8.256;2023-07-31T02:09:12;2.37;;;1.57;;
16063;SDS011;8136;53.172;8.256;2023-07-31T02:11:39;2.77;;;1.50;;
16063;SDS011;8136;53.172;8.256;2023-07-31T02:14:05;4.40;;;1.80;;
16063;SDS011;8136;53.172;8.256;2023-07-31T02:16:34;1.73;;;1.30;;
16063;SDS011;8136;53.172;8.256;2023-07-31T02:19:00;2.67;;;1.67;;
16063;SDS011;8136;53.172;8.256;2023-07-31T02:21:27;1.43;;;1.30;;
16063;SDS011;8136;53.172;8.256;2023-07-31T02:23:54;2.17;;;1.40;;
16063;SDS011;8136;53.172;8.256;2023-07-31T02:26:21;2.23;;;1.50;;
16063;SDS011;8136;53.172;8.256;2023-07-31T02:28:47;2.10;;;1.50;;
16063;SDS011;8136;53.172;8.256;2023-07-31T02:31:14;2.07;;;1.77;;
16063;SDS011;8136;53.172;8.256;2023-07-31T02:33:42;2.57;;;1.40;;
16063;SDS011;8136;53.172;8.256;2023-07-31T02:36:09;2.03;;;1.53;;
16063;SDS011;8136;53.172;8.256;2023-07-31T02:38:36;1.97;;;1.73;;
16063;SDS011;8136;53.172;8.256;2023-07-31T02:41:02;2.90;;;1.60;;
16063;SDS011;8136;53.172;8.256;2023-07-31T02:43:36;3.57;;;1.77;;
16063;SDS011;8136;53.172;8.256;2023-07-31T02:46:03;2.80;;;1.93;;
16063;SDS011;8136;53.172;8.256;2023-07-31T02:48:30;4.50;;;2.03;;
16063;SDS011;8136;53.172;8.256;2023-07-31T02:50:58;2.37;;;1.87;;
16063;SDS011;8136;53.172;8.256;2023-07-31T02:53:25;3.67;;;2.10;;
16063;SDS011;8136;53.172;8.256;2023-07-31T02:55:52;3.03;;;2.07;;
16063;SDS011;8136;53.172;8.256;2023-07-31T02:58:19;3.50;;;1.97;;
16063;SDS011;8136;53.172;8.256;2023-07-31T03:00:45;2.67;;;2.20;;
16063;SDS011;8136;53.172;8.256;2023-07-31T03:03:12;3.30;;;2.30;;
16063;SDS011;8136;53.172;8.256;2023-07-31T03:05:39;4.03;;;2.30;;
16063;SDS011;8136;53.172;8.256;2023-07-31T03:08:07;2.70;;;1.97;;
16063;SDS011;8136;53.172;8.256;2023-07-31T03:10:34;2.77;;;2.03;;
16063;SDS011;8136;53.172;8.256;2023-07-31T03:13:01;2.90;;;2.17;;
16063;SDS011;8136;53.172;8.256;2023-07-31T03:15:27;3.23;;;1.90;;
16063;SDS011;8136;53.172;8.256;2023-07-31T03:17:54;3.30;;;2.10;;
16063;SDS011;8136;53.172;8.256;2023-07-31T03:20:21;2.30;;;1.97;;
16063;SDS011;8136;53.172;8.256;2023-07-31T03:22:47;2.77;;;2.43;;
16063;SDS011;8136;53.172;8.256;2023-07-31T03:25:16;3.10;;;2.20;;
16063;SDS011;8136;53.172;8.256;2023-07-31T03:27:42;2.77;;;2.20;;
16063;SDS011;8136;53.172;8.256;2023-07-31T03:30:10;4.03;;;2.10;;
16063;SDS011;8136;53.172;8.256;2023-07-31T03:32:37;3.47;;;2.03;;
16063;SDS011;8136;53.172;8.256;2023-07-31T03:35:04;2.93;;;2.30;;
16063;SDS011;8136;53.172;8.256;2023-07-31T03:37:31;2.70;;;2.00;;
16063;SDS011;8136;53.172;8.256;2023-07-31T03:39:58;2.80;;;1.97;;
16063;SDS011;8136;53.172;8.256;2023-07-31T03:42:26;2.27;;;1.90;;
16063;SDS011;8136;53.172;8.256;2023-07-31T03:44:53;2.80;;;2.50;;
16063;SDS011;8136;53.172;8.256;2023-07-31T03:47:20;2.20;;;2.00;;
16063;SDS011;8136;53.172;8.256;2023-07-31T03:49:47;2.00;;;1.80;;
16063;SDS011;8136;53.172;8.256;2023-07-31T03:52:13;3.33;;;2.53;;
16063;SDS011;8136;53.172;8.256;2023-07-31T03:54:40;2.40;;;1.60;;
16063;SDS011;8136;53.172;8.256;2023-07-31T03:57:09;3.87;;;2.37;;
16063;SDS011;8136;53.172;8.256;2023-07-31T03:59:38;2.57;;;2.00;;
16063;SDS011;8136;53.172;8.256;2023-07-31T04:02:05;2.83;;;2.07;;
16063;SDS011;8136;53.172;8.256;2023-07-31T04:04:32;2.53;;;2.23;;
16063;SDS011;8136;53.172;8.256;2023-07-31T04:06:59;2.20;;;2.00;;
16063;SDS011;8136;53.172;8.256;2023-07-31T04:09:32;3.50;;;1.90;;
16063;SDS011;8136;53.172;8.256;2023-07-31T04:11:58;2.00;;;1.80;;
16063;SDS011;8136;53.172;8.256;2023-07-31T04:14:25;2.23;;;1.80;;
16063;SDS011;8136;53.172;8.256;2023-07-31T04:16:53;2.10;;;1.90;;
16063;SDS011;8136;53.172;8.256;2023-07-31T04:19:20;2.10;;;1.90;;
16063;SDS011;8136;53.172;8.256;2023-07-31T04:21:47;2.43;;;1.70;;
16063;SDS011;8136;53.172;8.256;2023-07-31T04:24:14;2.07;;;1.80;;
16063;SDS011;8136;53.172;8.256;2023-07-31T04:26:40;2.67;;;1.50;;
16063;SDS011;8136;53.172;8.256;2023-07-31T04:29:07;1.40;;;1.30;;
16063;SDS011;8136;53.172;8.256;2023-07-31T04:31:34;2.07;;;1.70;;
16063;SDS011;8136;53.172;8.256;2023-07-31T04:34:02;3.23;;;1.60;;
16063;SDS011;8136;53.172;8.256;2023-07-31T04:36:29;1.53;;;1.30;;
16063;SDS011;8136;53.172;8.256;2023-07-31T04:38:56;1.50;;;1.40;;
16063;SDS011;8136;53.172;8.256;2023-07-31T04:41:23;1.73;;;1.57;;
16063;SDS011;8136;53.172;8.256;2023-07-31T04:43:50;1.83;;;1.27;;
16063;SDS011;8136;53.172;8.256;2023-07-31T04:46:17;1.33;;;1.13;;
16063;SDS011;8136;53.172;8.256;2023-07-31T04:48:44;1.30;;;1.20;;
16063;SDS011;8136;53.172;8.256;2023-07-31T04:51:12;1.00;;;0.90;;
16063;SDS011;8136;53.172;8.256;2023-07-31T04:53:39;2.57;;;1.40;;
16063;SDS011;8136;53.172;8.256;2023-07-31T04:56:05;1.20;;;1.03;;
16063;SDS011;8136;53.172;8.256;2023-07-31T04:58:32;1.27;;;0.90;;
16063;SDS011;8136;53.172;8.256;2023-07-31T05:00:59;1.30;;;0.90;;
16063;SDS011;8136;53.172;8.256;2023-07-31T05:03:26;1.23;;;1.00;;
16063;SDS011;8136;53.172;8.256;2023-07-31T05:05:53;2.73;;;1.03;;
16063;SDS011;8136;53.172;8.256;2023-07-31T05:08:21;0.93;;;0.80;;
16063;SDS011;8136;53.172;8.256;2023-07-31T05:10:47;1.07;;;0.87;;
16063;SDS011;8136;53.172;8.256;2023-07-31T05:13:14;0.80;;;0.80;;
16063;SDS011;8136;53.172;8.256;2023-07-31T05:15:41;1.30;;;0.70;;
16063;SDS011;8136;53.172;8.256;2023-07-31T05:18:08;2.87;;;0.70;;
16063;SDS011;8136;53.172;8.256;2023-07-31T05:20:35;0.90;;;0.70;;
16063;SDS011;8136;53.172;8.256;2023-07-31T05:23:02;0.70;;;0.63;;
16063;SDS011;8136;53.172;8.256;2023-07-31T05:25:30;0.97;;;0.70;;
16063;SDS011;8136;53.172;8.256;2023-07-31T05:27:57;0.70;;;0.63;;
16063;SDS011;8136;53.172;8.256;2023-07-31T05:30:24;0.60;;;0.60;;
16063;SDS011;8136;53.172;8.256;2023-07-31T05:32:51;1.10;;;0.80;;
16063;SDS011;8136;53.172;8.256;2023-07-31T05:35:17;0.50;;;0.50;;
16063;SDS011;8136;53.172;8.256;2023-07-31T05:37:44;0.83;;;0.83;;
16063;SDS011;8136;53.172;8.256;2023-07-31T05:40:11;1.07;;;0.83;;
16063;SDS011;8136;53.172;8.256;2023-07-31T05:42:39;0.73;;;0.73;;
16063;SDS011;8136;53.172;8.256;2023-07-31T05:45:06;0.90;;;0.80;;
16063;SDS011;8136;53.172;8.256;2023-07-31T05:47:34;0.60;;;0.60;;
16063;SDS011;8136;53.172;8.256;2023-07-31T05:50:02;1.87;;;0.80;;
16063;SDS011;8136;53.172;8.256;2023-07-31T05:52:29;0.80;;;0.67;;
16063;SDS011;8136;53.172;8.256;2023-07-31T05:54:56;2.03;;;0.90;;
16063;SDS011;8136;53.172;8.256;2023-07-31T05:57:22;0.90;;;0.80;;
16063;SDS011;8136;53.172;8.256;2023-07-31T05:59:50;1.00;;;0.90;;
16063;SDS011;8136;53.172;8.256;2023-07-31T06:02:18;0.90;;;0.67;;
16063;SDS011;8136;53.172;8.256;2023-07-31T06:04:45;0.93;;;0.70;;
16063;SDS011;8136;53.172;8.256;2023-07-31T06:07:12;0.93;;;0.60;;
16063;SDS011;8136;53.172;8.256;2023-07-31T06:09:38;0.73;;;0.53;;
16063;SDS011;8136;53.172;8.256;2023-07-31T06:12:05;1.13;;;0.53;;
16063;SDS011;8136;53.172;8.256;2023-07-31T06:14:32;0.67;;;0.50;;
16063;SDS011;8136;53.172;8.256;2023-07-31T06:17:01;0.57;;;0.57;;
16063;SDS011;8136;53.172;8.256;2023-07-31T06:19:27;0.90;;;0.60;;
16063;SDS011;8136;53.172;8.256;2023-07-31T06:21:54;1.13;;;0.60;;
16063;SDS011;8136;53.172;8.256;2023-07-31T06:24:21;0.40;;;0.30;;
16063;SDS011;8136;53.172;8.256;2023-07-31T06:26:48;0.43;;;0.20;;
16063;SDS011;8136;53.172;8.256;2023-07-31T06:29:15;0.57;;;0.43;;
16063;SDS011;8136;53.172;8.256;2023-07-31T06:31:42;0.83;;;0.30;;
16063;SDS011;8136;53.172;8.256;2023-07-31T06:34:10;0.60;;;0.40;;
16063;SDS011;8136;53.172;8.256;2023-07-31T06:36:37;1.20;;;0.60;;
16063;SDS011;8136;53.172;8.256;2023-07-31T06:39:04;0.30;;;0.30;;
16063;SDS011;8136;53.172;8.256;2023-07-31T06:41:31;2.07;;;0.60;;
16063;SDS011;8136;53.172;8.256;2023-07-31T06:43:57;0.80;;;0.43;;
16063;SDS011;8136;53.172;8.256;2023-07-31T06:46:24;0.60;;;0.50;;
16063;SDS011;8136;53.172;8.256;2023-07-31T06:48:51;0.93;;;0.57;;
16063;SDS011;8136;53.172;8.256;2023-07-31T06:51:19;1.10;;;0.53;;
16063;SDS011;8136;53.172;8.256;2023-07-31T06:53:46;1.03;;;0.60;;
16063;SDS011;8136;53.172;8.256;2023-07-31T06:56:13;0.60;;;0.50;;
16063;SDS011;8136;53.172;8.256;2023-07-31T06:58:39;0.47;;;0.30;;
16063;SDS011;8136;53.172;8.256;2023-07-31T07:01:06;0.63;;;0.40;;
16063;SDS011;8136;53.172;8.256;2023-07-31T07:03:33;0.70;;;0.50;;
16063;SDS011;8136;53.172;8.256;2023-07-31T07:06:00;0.37;;;0.37;;
16063;SDS011;8136;53.172;8.256;2023-07-31T07:08:28;0.43;;;0.30;;
16063;SDS011;8136;53.172;8.256;2023-07-31T07:10:55;1.10;;;0.30;;
16063;SDS011;8136;53.172;8.256;2023-07-31T07:13:22;0.30;;;0.30;;
16063;SDS011;8136;53.172;8.256;2023-07-31T07:15:48;0.60;;;0.40;;
16063;SDS011;8136;53.172;8.256;2023-07-31T07:18:16;1.37;;;0.30;;
16063;SDS011;8136;53.172;8.256;2023-07-31T07:20:46;0.60;;;0.30;;
16063;SDS011;8136;53.172;8.256;2023-07-31T07:23:13;4.47;;;0.43;;
16063;SDS011;8136;53.172;8.256;2023-07-31T07:25:41;2.10;;;0.40;;
16063;SDS011;8136;53.172;8.256;2023-07-31T07:28:08;0.30;;;0.30;;
16063;SDS011;8136;53.172;8.256;2023-07-31T07:30:35;0.60;;;0.30;;
16063;SDS011;8136;53.172;8.256;2023-07-31T07:33:02;0.90;;;0.67;;
16063;SDS011;8136;53.172;8.256;2023-07-31T07:35:29;1.10;;;0.50;;
16063;SDS011;8136;53.172;8.256;2023-07-31T07:37:56;0.97;;;0.73;;
16063;SDS011;8136;53.172;8.256;2023-07-31T07:40:22;2.60;;;1.50;;
16063;SDS011;8136;53.172;8.256;2023-07-31T07:42:53;3.60;;;1.83;;
16063;SDS011;8136;53.172;8.256;2023-07-31T07:45:20;4.27;;;2.43;;
16063;SDS011;8136;53.172;8.256;2023-07-31T07:47:53;6.20;;;3.00;;
16063;SDS011;8136;53.172;8.256;2023-07-31T07:50:19;3.50;;;2.67;;
16063;SDS011;8136;53.172;8.256;2023-07-31T07:52:46;6.83;;;3.63;;
16063;SDS011;8136;53.172;8.256;2023-07-31T07:55:15;7.53;;;3.43;;
16063;SDS011;8136;53.172;8.256;2023-07-31T07:57:42;6.67;;;3.50;;
16063;SDS011;8136;53.172;8.256;2023-07-31T08:00:11;6.30;;;3.77;;
16063;SDS011;8136;53.172;8.256;2023-07-31T08:02:39;9.37;;;3.73;;
16063;SDS011;8136;53.172;8.256;2023-07-31T08:05:06;7.10;;;4.17;;
16063;SDS011;8136;53.172;8.256;2023-07-31T08:07:33;7.50;;;4.50;;
16063;SDS011;8136;53.172;8.256;2023-07-31T08:10:00;8.17;;;4.33;;
16063;SDS011;8136;53.172;8.256;2023-07-31T08:12:27;11.73;;;4.93;;
16063;SDS011;8136;53.172;8.256;2023-07-31T08:14:54;11.17;;;4.90;;
16063;SDS011;8136;53.172;8.256;2023-07-31T08:17:23;10.50;;;5.13;;
16063;SDS011;8136;53.172;8.256;2023-07-31T08:19:50;10.47;;;4.13;;
16063;SDS011;8136;53.172;8.256;2023-07-31T08:22:17;12.97;;;4.97;;
16063;SDS011;8136;53.172;8.256;2023-07-31T08:24:43;15.77;;;5.63;;
16063;SDS011;8136;53.172;8.256;2023-07-31T08:27:11;9.77;;;4.90;;
16063;SDS011;8136;53.172;8.256;2023-07-31T08:29:37;12.83;;;5.07;;
16063;SDS011;8136;53.172;8.256;2023-07-31T08:32:04;7.00;;;4.50;;
16063;SDS011;8136;53.172;8.256;2023-07-31T08:34:33;13.40;;;5.27;;
16063;SDS011;8136;53.172;8.256;2023-07-31T08:37:00;10.03;;;4.93;;
16063;SDS011;8136;53.172;8.256;2023-07-31T08:39:27;12.00;;;5.23;;
16063;SDS011;8136;53.172;8.256;2023-07-31T08:41:57;8.37;;;4.53;;
16063;SDS011;8136;53.172;8.256;2023-07-31T08:44:24;13.43;;;5.43;;
16063;SDS011;8136;53.172;8.256;2023-07-31T08:46:51;12.53;;;5.10;;
16063;SDS011;8136;53.172;8.256;2023-07-31T08:49:19;9.93;;;4.63;;
16063;SDS011;8136;53.172;8.256;2023-07-31T08:51:49;11.53;;;5.50;;
16063;SDS011;8136;53.172;8.256;2023-07-31T08:54:16;14.17;;;4.93;;
16063;SDS011;8136;53.172;8.256;2023-07-31T08:56:43;7.63;;;4.40;;
16063;SDS011;8136;53.172;8.256;2023-07-31T08:59:12;10.23;;;4.43;;
16063;SDS011;8136;53.172;8.256;2023-07-31T09:01:43;7.43;;;4.07;;
16063;SDS011;8136;53.172;8.256;2023-07-31T09:04:17;7.80;;;4.30;;
16063;SDS011;8136;53.172;8.256;2023-07-31T09:06:46;7.50;;;4.50;;
16063;SDS011;8136;53.172;8.256;2023-07-31T09:09:15;8.27;;;3.97;;
16063;SDS011;8136;53.172;8.256;2023-07-31T09:11:42;8.10;;;4.13;;
16063;SDS011;8136;53.172;8.256;2023-07-31T09:14:09;8.27;;;4.10;;
16063;SDS011;8136;53.172;8.256;2023-07-31T09:16:37;5.03;;;3.60;;
16063;SDS011;8136;53.172;8.256;2023-07-31T09:19:24;6.80;;;3.70;;
16063;SDS011;8136;53.172;8.256;2023-07-31T09:21:52;9.30;;;4.20;;
16063;SDS011;8136;53.172;8.256;2023-07-31T09:24:24;7.60;;;4.13;;
16063;SDS011;8136;53.172;8.256;2023-07-31T09:26:53;7.13;;;4.13;;
16063;SDS011;8136;53.172;8.256;2023-07-31T09:29:21;7.03;;;4.30;;
16063;SDS011;8136;53.172;8.256;2023-07-31T09:31:48;5.77;;;4.30;;
16063;SDS011;8136;53.172;8.256;2023-07-31T09:34:16;10.10;;;4.80;;
16063;SDS011;8136;53.172;8.256;2023-07-31T09:36:43;8.90;;;4.23;;
16063;SDS011;8136;53.172;8.256;2023-07-31T09:39:13;8.90;;;5.00;;
16063;SDS011;8136;53.172;8.256;2023-07-31T09:41:41;6.63;;;4.10;;
16063;SDS011;8136;53.172;8.256;2023-07-31T09:44:09;5.77;;;4.20;;
16063;SDS011;8136;53.172;8.256;2023-07-31T09:46:39;4.70;;;3.43;;
16063;SDS011;8136;53.172;8.256;2023-07-31T09:49:09;7.17;;;3.40;;
16063;SDS011;8136;53.172;8.256;2023-07-31T09:52:12;5.27;;;3.80;;
16063;SDS011;8136;53.172;8.256;2023-07-31T09:54:41;5.47;;;3.30;;
16063;SDS011;8136;53.172;8.256;2023-07-31T09:57:08;6.93;;;3.23;;
16063;SDS011;8136;53.172;8.256;2023-07-31T09:59:36;4.83;;;3.10;;
16063;SDS011;8136;53.172;8.256;2023-07-31T10:02:03;4.03;;;3.43;;
16063;SDS011;8136;53.172;8.256;2023-07-31T10:04:34;6.10;;;2.50;;
16063;SDS011;8136;53.172;8.256;2023-07-31T10:07:00;5.77;;;2.90;;
16063;SDS011;8136;53.172;8.256;2023-07-31T10:09:29;5.07;;;2.63;;
16063;SDS011;8136;53.172;8.256;2023-07-31T10:12:00;3.17;;;2.43;;
16063;SDS011;8136;53.172;8.256;2023-07-31T10:14:28;3.83;;;2.40;;
16063;SDS011;8136;53.172;8.256;2023-07-31T10:16:56;3.63;;;1.80;;
16063;SDS011;8136;53.172;8.256;2023-07-31T10:19:24;4.17;;;2.43;;
16063;SDS011;8136;53.172;8.256;2023-07-31T10:21:53;3.93;;;2.30;;
16063;SDS011;8136;53.172;8.256;2023-07-31T10:24:21;2.43;;;1.47;;
16063;SDS011;8136;53.172;8.256;2023-07-31T10:26:49;2.53;;;1.93;;
16063;SDS011;8136;53.172;8.256;2023-07-31T10:29:20;2.20;;;1.70;;
16063;SDS011;8136;53.172;8.256;2023-07-31T10:31:49;2.67;;;1.77;;
16063;SDS011;8136;53.172;8.256;2023-07-31T10:34:17;3.73;;;1.77;;
16063;SDS011;8136;53.172;8.256;2023-07-31T10:36:45;2.47;;;1.73;;
16063;SDS011;8136;53.172;8.256;2023-07-31T10:41:59;2.63;;;1.47;;
16063;SDS011;8136;53.172;8.256;2023-07-31T10:44:46;2.70;;;1.43;;
16063;SDS011;8136;53.172;8.256;2023-07-31T10:47:27;4.40;;;1.80;;
16063;SDS011;8136;53.172;8.256;2023-07-31T10:52:39;2.33;;;1.53;;
16063;SDS011;8136;53.172;8.256;2023-07-31T10:55:13;2.17;;;1.20;;
16063;SDS011;8136;53.172;8.256;2023-07-31T10:57:43;1.20;;;1.10;;
16063;SDS011;8136;53.172;8.256;2023-07-31T11:00:19;1.10;;;1.00;;
16063;SDS011;8136;53.172;8.256;2023-07-31T11:02:55;1.73;;;1.10;;
16063;SDS011;8136;53.172;8.256;2023-07-31T11:05:49;3.17;;;1.10;;
16063;SDS011;8136;53.172;8.256;2023-07-31T11:08:25;2.13;;;1.40;;
16063;SDS011;8136;53.172;8.256;2023-07-31T11:11:04;1.33;;;1.10;;
16063;SDS011;8136;53.172;8.256;2023-07-31T11:13:32;3.40;;;1.17;;
16063;SDS011;8136;53.172;8.256;2023-07-31T11:16:04;1.60;;;1.10;;
16063;SDS011;8136;53.172;8.256;2023-07-31T11:18:37;0.80;;;0.80;;
16063;SDS011;8136;53.172;8.256;2023-07-31T11:21:08;1.20;;;1.10;;
16063;SDS011;8136;53.172;8.256;2023-07-31T11:23:38;1.00;;;0.90;;
16063;SDS011;8136;53.172;8.256;2023-07-31T11:26:05;1.87;;;1.17;;
16063;SDS011;8136;53.172;8.256;2023-07-31T11:28:32;1.00;;;0.90;;
16063;SDS011;8136;53.172;8.256;2023-07-31T11:31:01;1.17;;;0.60;;
16063;SDS011;8136;53.172;8.256;2023-07-31T11:33:37;0.73;;;0.70;;
16063;SDS011;8136;53.172;8.256;2023-07-31T11:36:04;1.13;;;0.87;;
16063;SDS011;8136;53.172;8.256;2023-07-31T11:38:33;1.00;;;0.90;;
16063;SDS011;8136;53.172;8.256;2023-07-31T11:41:15;1.13;;;0.93;;
16063;SDS011;8136;53.172;8.256;2023-07-31T11:43:59;1.07;;;0.80;;
16063;SDS011;8136;53.172;8.256;2023-07-31T11:46:28;1.00;;;0.90;;
16063;SDS011;8136;53.172;8.256;2023-07-31T11:48:59;0.70;;;0.70;;
16063;SDS011;8136;53.172;8.256;2023-07-31T11:51:26;0.90;;;0.90;;
16063;SDS011;8136;53.172;8.256;2023-07-31T11:53:56;0.60;;;0.60;;
16063;SDS011;8136;53.172;8.256;2023-07-31T11:56:24;1.00;;;0.80;;
16063;SDS011;8136;53.172;8.256;2023-07-31T11:58:53;1.20;;;1.10;;
16063;SDS011;8136;53.172;8.256;2023-07-31T12:01:22;0.73;;;0.73;;
16063;SDS011;8136;53.172;8.256;2023-07-31T12:03:52;1.20;;;1.07;;
16063;SDS011;8136;53.172;8.256;2023-07-31T12:06:19;1.07;;;0.90;;
16063;SDS011;8136;53.172;8.256;2023-07-31T12:08:46;1.07;;;0.83;;
16063;SDS011;8136;53.172;8.256;2023-07-31T12:11:14;0.77;;;0.77;;
16063;SDS011;8136;53.172;8.256;2023-07-31T12:13:43;0.93;;;0.93;;
16063;SDS011;8136;53.172;8.256;2023-07-31T12:16:10;1.07;;;1.00;;
16063;SDS011;8136;53.172;8.256;2023-07-31T12:18:37;0.97;;;0.87;;
16063;SDS011;8136;53.172;8.256;2023-07-31T12:21:06;3.10;;;0.90;;
16063;SDS011;8136;53.172;8.256;2023-07-31T12:23:36;0.70;;;0.60;;
16063;SDS011;8136;53.172;8.256;2023-07-31T12:26:08;1.30;;;0.90;;
16063;SDS011;8136;53.172;8.256;2023-07-31T12:28:36;0.97;;;0.70;;
16063;SDS011;8136;53.172;8.256;2023-07-31T12:31:03;1.70;;;0.97;;
16063;SDS011;8136;53.172;8.256;2023-07-31T12:33:31;1.33;;;1.00;;
16063;SDS011;8136;53.172;8.256;2023-07-31T12:36:00;1.57;;;1.20;;
16063;SDS011;8136;53.172;8.256;2023-07-31T12:38:29;0.80;;;0.80;;
16063;SDS011;8136;53.172;8.256;2023-07-31T12:40:56;1.50;;;1.00;;
16063;SDS011;8136;53.172;8.256;2023-07-31T12:43:23;1.40;;;1.10;;
16063;SDS011;8136;53.172;8.256;2023-07-31T12:45:55;3.47;;;1.33;;
16063;SDS011;8136;53.172;8.256;2023-07-31T12:48:26;2.70;;;0.90;;
16063;SDS011;8136;53.172;8.256;2023-07-31T12:50:52;1.20;;;1.00;;
16063;SDS011;8136;53.172;8.256;2023-07-31T12:53:21;2.83;;;1.40;;
16063;SDS011;8136;53.172;8.256;2023-07-31T12:55:50;1.33;;;0.90;;
16063;SDS011;8136;53.172;8.256;2023-07-31T12:58:24;1.23;;;0.90;;
16063;SDS011;8136;53.172;8.256;2023-07-31T13:00:55;1.10;;;1.00;;
16063;SDS011;8136;53.172;8.256;2023-07-31T13:03:23;1.47;;;1.07;;
16063;SDS011;8136;53.172;8.256;2023-07-31T13:05:50;0.87;;;0.80;;
16063;SDS011;8136;53.172;8.256;2023-07-31T13:08:18;1.10;;;1.00;;
16063;SDS011;8136;53.172;8.256;2023-07-31T13:10:44;1.27;;;1.13;;
16063;SDS011;8136;53.172;8.256;2023-07-31T13:13:12;1.10;;;1.00;;
16063;SDS011;8136;53.172;8.256;2023-07-31T13:15:39;1.10;;;1.00;;
16063;SDS011;8136;53.172;8.256;2023-07-31T13:18:06;1.50;;;1.07;;
16063;SDS011;8136;53.172;8.256;2023-07-31T13:20:37;1.20;;;1.00;;
16063;SDS011;8136;53.172;8.256;2023-07-31T13:23:04;1.80;;;0.90;;
16063;SDS011;8136;53.172;8.256;2023-07-31T13:25:31;0.97;;;0.87;;
16063;SDS011;8136;53.172;8.256;2023-07-31T13:28:03;1.13;;;1.03;;
16063;SDS011;8136;53.172;8.256;2023-07-31T13:30:31;1.30;;;1.13;;
16063;SDS011;8136;53.172;8.256;2023-07-31T13:32:58;0.93;;;0.87;;
16063;SDS011;8136;53.172;8.256;2023-07-31T13:35:25;1.43;;;1.20;;
16063;SDS011;8136;53.172;8.256;2023-07-31T13:37:52;1.10;;;1.00;;
16063;SDS011;8136;53.172;8.256;2023-07-31T13:40:21;2.13;;;0.93;;
16063;SDS011;8136;53.172;8.256;2023-07-31T13:42:49;1.40;;;1.23;;
16063;SDS011;8136;53.172;8.256;2023-07-31T13:45:16;2.00;;;1.47;;
16063;SDS011;8136;53.172;8.256;2023-07-31T13:47:44;1.83;;;1.47;;
16063;SDS011;8136;53.172;8.256;2023-07-31T13:50:11;3.13;;;1.67;;
16063;SDS011;8136;53.172;8.256;2023-07-31T13:52:38;2.73;;;1.90;;
16063;SDS011;8136;53.172;8.256;2023-07-31T13:55:05;1.70;;;1.30;;
16063;SDS011;8136;53.172;8.256;2023-07-31T13:57:37;2.00;;;1.63;;
16063;SDS011;8136;53.172;8.256;2023-07-31T14:00:08;2.40;;;1.83;;
16063;SDS011;8136;53.172;8.256;2023-07-31T14:02:36;2.33;;;1.90;;
16063;SDS011;8136;53.172;8.256;2023-07-31T14:05:04;2.60;;;1.93;;
16063;SDS011;8136;53.172;8.256;2023-07-31T14:07:33;3.20;;;2.00;;
16063;SDS011;8136;53.172;8.256;2023-07-31T14:09:59;2.13;;;1.70;;
16063;SDS011;8136;53.172;8.256;2023-07-31T14:12:28;3.53;;;1.87;;
16063;SDS011;8136;53.172;8.256;2023-07-31T14:14:55;3.10;;;1.80;;
16063;SDS011;8136;53.172;8.256;2023-07-31T14:17:22;1.60;;;1.10;;
16063;SDS011;8136;53.172;8.256;2023-07-31T14:19:49;1.23;;;0.97;;
16063;SDS011;8136;53.172;8.256;2023-07-31T14:22:24;1.80;;;0.67;;
16063;SDS011;8136;53.172;8.256;2023-07-31T14:24:53;0.30;;;0.30;;
16063;SDS011;8136;53.172;8.256;2023-07-31T14:27:20;0.70;;;0.50;;
16063;SDS011;8136;53.172;8.256;2023-07-31T14:29:47;0.40;;;0.40;;
16063;SDS011;8136;53.172;8.256;2023-07-31T14:32:13;0.40;;;0.30;;
16063;SDS011;8136;53.172;8.256;2023-07-31T14:34:46;1.13;;;0.33;;
16063;SDS011;8136;53.172;8.256;2023-07-31T14:37:14;0.67;;;0.47;;
16063;SDS011;8136;53.172;8.256;2023-07-31T14:39:51;0.60;;;0.60;;
16063;SDS011;8136;53.172;8.256;2023-07-31T14:42:38;1.73;;;1.00;;
16063;SDS011;8136;53.172;8.256;2023-07-31T14:45:13;0.63;;;0.63;;
16063;SDS011;8136;53.172;8.256;2023-07-31T14:47:42;2.27;;;0.90;;
16063;SDS011;8136;53.172;8.256;2023-07-31T14:50:22;1.30;;;1.10;;
16063;SDS011;8136;53.172;8.256;2023-07-31T14:53:07;0.90;;;0.70;;
16063;SDS011;8136;53.172;8.256;2023-07-31T14:55:42;0.73;;;0.60;;
16063;SDS011;8136;53.172;8.256;2023-07-31T14:58:21;5.13;;;0.90;;
16063;SDS011;8136;53.172;8.256;2023-07-31T15:00:49;1.33;;;0.70;;
16063;SDS011;8136;53.172;8.256;2023-07-31T15:03:16;0.97;;;0.70;;
16063;SDS011;8136;53.172;8.256;2023-07-31T15:05:42;2.20;;;1.10;;
16063;SDS011;8136;53.172;8.256;2023-07-31T15:08:16;0.97;;;0.70;;
16063;SDS011;8136;53.172;8.256;2023-07-31T15:10:45;0.70;;;0.60;;
16063;SDS011;8136;53.172;8.256;2023-07-31T15:13:22;0.80;;;0.60;;